createdAt,value
2023-05-12T00:00:02.264Z,13.53
2023-05-12T00:07:01.989Z,13.51
2023-05-12T00:14:02.068Z,13.51
2023-05-12T00:21:01.993Z,13.48
2023-05-12T00:28:02.321Z,13.48
2023-05-12T00:35:02.539Z,13.33
2023-05-12T00:42:02.129Z,13.33
2023-05-12T00:49:01.828Z,13.39
2023-05-12T00:56:01.408Z,13
2023-05-12T01:00:02.155Z,13
2023-05-12T01:07:02.316Z,13
2023-05-12T01:14:01.512Z,13.31
2023-05-12T01:21:01.684Z,13.32
2023-05-12T01:28:01.998Z,13.32
2023-05-12T01:35:02.263Z,13.21
2023-05-12T01:42:01.849Z,13.21
2023-05-12T01:49:01.383Z,13.33
2023-05-12T01:56:02.288Z,13.33
2023-05-12T02:00:01.902Z,13.14
2023-05-12T02:07:01.862Z,13.14
2023-05-12T02:14:01.917Z,13.14
2023-05-12T02:21:02.155Z,13.14
2023-05-12T02:28:01.843Z,13.11
2023-05-12T02:35:01.988Z,13.11
2023-05-12T02:42:01.725Z,12.99
2023-05-12T02:49:02.293Z,12.99
2023-05-12T02:56:01.936Z,12.94
2023-05-12T03:00:02.566Z,12.94
2023-05-12T03:07:01.366Z,12.8
2023-05-12T03:14:02.270Z,12.8
2023-05-12T03:21:02.017Z,12.8
2023-05-12T03:28:02.188Z,12.8
2023-05-12T03:35:01.619Z,12.83
2023-05-12T03:42:01.731Z,12.83
2023-05-12T03:49:01.706Z,12.84
2023-05-12T03:56:01.855Z,12.93
2023-05-12T04:00:02.379Z,12.93
2023-05-12T04:07:01.854Z,12.93
2023-05-12T04:14:02.128Z,12.97
2023-05-12T04:21:01.370Z,12.97
2023-05-12T04:28:02.206Z,12.97
2023-05-12T04:35:02.147Z,12.92
2023-05-12T04:42:02.300Z,12.92
2023-05-12T04:49:02.081Z,12.91
2023-05-12T04:56:01.660Z,12.91
2023-05-12T05:00:02.270Z,13.02
2023-05-12T05:07:01.987Z,13.02
2023-05-12T05:14:01.477Z,13
2023-05-12T05:21:01.893Z,13
2023-05-12T05:28:01.810Z,13.06
2023-05-12T05:35:02.299Z,13.06
2023-05-12T05:42:02.164Z,13.02
2023-05-12T05:49:01.461Z,13.02
2023-05-12T05:56:01.458Z,13.01
2023-05-12T06:00:02.102Z,13.01
2023-05-12T06:07:01.561Z,13.13
2023-05-12T06:14:02.231Z,13.13
2023-05-12T06:21:02.112Z,13.28
2023-05-12T06:28:01.939Z,13.28
2023-05-12T06:35:02.594Z,13.31
2023-05-12T06:42:01.630Z,13.31
2023-05-12T06:49:01.351Z,13.28
2023-05-12T06:56:01.416Z,13.45
2023-05-12T07:00:02.033Z,13.45
2023-05-12T07:07:01.912Z,13.45
2023-05-12T07:14:02.077Z,13.5
2023-05-12T07:21:02.042Z,13.5
2023-05-12T07:28:01.351Z,13.66
2023-05-12T07:35:01.776Z,13.8
2023-05-12T07:42:01.490Z,13.8
2023-05-12T07:49:02.282Z,13.94
2023-05-12T07:56:02.269Z,13.94
2023-05-12T08:00:01.871Z,14.01
2023-05-12T08:07:01.753Z,14.01
2023-05-12T08:14:01.654Z,14.1
2023-05-12T08:21:02.004Z,14.1
2023-05-12T08:28:02.021Z,14.13
2023-05-12T08:35:02.279Z,14.13
2023-05-12T08:42:01.647Z,14.18
2023-05-12T08:49:02.231Z,14.18
2023-05-12T08:57:09.341Z,14.33
2023-05-12T09:00:01.706Z,14.33
2023-05-12T09:07:01.965Z,14.38
2023-05-12T09:14:01.636Z,14.38
2023-05-12T09:21:02.103Z,14.5
2023-05-12T09:28:01.834Z,14.5
2023-05-12T09:35:01.521Z,14.63
2023-05-12T09:42:02.203Z,14.63
2023-05-12T09:49:01.332Z,14.87
2023-05-12T09:56:01.726Z,15.09
2023-05-12T10:00:02.470Z,15.09
2023-05-12T10:07:01.647Z,15.09
2023-05-12T10:14:01.992Z,15.24
2023-05-12T10:21:01.434Z,15.24
2023-05-12T10:28:01.899Z,15.5
2023-05-12T10:35:02.069Z,15.75
2023-05-12T10:42:02.313Z,15.75
2023-05-12T10:49:01.799Z,15.9
2023-05-12T10:56:02.429Z,15.9
2023-05-12T11:00:03.592Z,16.07
2023-05-12T11:07:03.030Z,16.07
2023-05-12T11:14:01.872Z,16.41
2023-05-12T11:21:01.714Z,16.41
2023-05-12T11:28:01.420Z,16.57
2023-05-12T11:35:02.179Z,16.57
2023-05-12T11:42:12.309Z,16.86
2023-05-12T11:49:01.643Z,16.86
2023-05-12T11:56:02.083Z,17.12
2023-05-12T12:00:01.667Z,17.12
2023-05-12T12:07:01.778Z,17.35
2023-05-12T12:14:01.826Z,17.35
2023-05-12T12:21:01.516Z,17.26
2023-05-12T12:28:01.713Z,17.26
2023-05-12T12:35:02.027Z,17.45
2023-05-12T12:42:01.862Z,17.45
2023-05-12T12:49:02.103Z,17.59
2023-05-12T12:56:01.580Z,17.77
2023-05-12T13:00:02.552Z,17.77
2023-05-12T13:07:01.485Z,17.77
2023-05-12T13:14:01.637Z,17.88
2023-05-12T13:21:01.823Z,17.88
2023-05-12T13:28:01.432Z,17.93
2023-05-12T13:35:02.463Z,17.8
2023-05-12T13:42:02.023Z,17.8
2023-05-12T13:49:02.237Z,17.72
2023-05-12T13:56:02.278Z,17.72
2023-05-12T14:00:01.825Z,17.72
2023-05-12T14:07:01.509Z,17.89
2023-05-12T14:14:02.243Z,17.93
2023-05-12T14:21:01.465Z,17.93
2023-05-12T14:28:01.371Z,17.95
2023-05-12T14:35:01.571Z,17.95
2023-05-12T14:42:02.204Z,17.62
2023-05-12T14:49:02.108Z,17.62
2023-05-12T14:56:01.597Z,17.93
2023-05-12T15:00:02.217Z,17.93
2023-05-12T15:07:01.512Z,17.98
2023-05-12T15:14:02.152Z,17.98
2023-05-12T15:21:01.424Z,17.92
2023-05-12T15:28:01.715Z,17.92
2023-05-12T15:35:01.576Z,17.93
2023-05-12T15:42:01.654Z,17.93
2023-05-12T15:49:02.036Z,17.8
2023-05-12T15:56:01.693Z,17.64
2023-05-12T16:00:02.575Z,17.64
2023-05-12T16:07:01.388Z,17.64
2023-05-12T16:14:02.267Z,17.51
2023-05-12T16:21:01.610Z,17.51
2023-05-12T16:28:01.506Z,17.17
2023-05-12T16:35:01.744Z,17.17
2023-05-12T16:42:01.630Z,17.31
2023-05-12T16:49:01.722Z,17.12
2023-05-12T16:56:01.831Z,17.12
2023-05-12T17:00:02.429Z,17.12
2023-05-12T17:07:02.034Z,16.89
2023-05-12T17:14:01.648Z,16.89
2023-05-12T17:21:01.688Z,16.98
2023-05-12T17:28:01.917Z,16.88
2023-05-12T17:35:01.876Z,16.88
2023-05-12T17:42:01.572Z,16.69
2023-05-12T17:49:01.575Z,16.69
2023-05-12T17:56:02.301Z,16.77
2023-05-12T18:00:01.814Z,16.77
2023-05-12T18:07:01.888Z,16.72
2023-05-12T18:14:02.063Z,16.72
2023-05-12T18:21:02.087Z,16.37
2023-05-12T18:28:02.054Z,16.37
2023-05-12T18:35:02.193Z,16.37
2023-05-12T18:42:01.404Z,16.37
2023-05-12T18:49:01.583Z,16.16
2023-05-12T18:56:01.728Z,16.16
2023-05-12T19:00:02.274Z,16.22
2023-05-12T19:07:02.005Z,16.22
2023-05-12T19:14:01.317Z,16.22
2023-05-12T19:21:01.925Z,16.22
2023-05-12T19:28:01.828Z,15.46
2023-05-12T19:35:01.918Z,15.46
2023-05-12T19:42:01.858Z,15.9
2023-05-12T19:49:01.935Z,15.9
2023-05-12T19:56:01.417Z,15.81
2023-05-12T20:00:02.049Z,15.81
2023-05-12T20:07:01.532Z,15.78
2023-05-12T20:14:02.292Z,15.78
2023-05-12T20:21:02.245Z,15.44
2023-05-12T20:28:01.989Z,15.44
2023-05-12T20:35:01.553Z,15.18
2023-05-12T20:42:01.819Z,15.18
2023-05-12T20:49:01.480Z,15.11
2023-05-12T20:56:01.854Z,14.92
2023-05-12T21:00:02.470Z,14.92
2023-05-12T21:07:01.627Z,14.92
2023-05-12T21:14:01.766Z,14.75
2023-05-12T21:21:02.089Z,14.75
2023-05-12T21:28:01.481Z,14.59
2023-05-12T21:35:01.701Z,14.53
2023-05-12T21:42:01.923Z,14.53
2023-05-12T21:49:01.544Z,14.42
2023-05-12T21:56:01.950Z,14.42
2023-05-12T22:00:02.583Z,13.99
2023-05-12T22:07:01.903Z,13.99
2023-05-12T22:14:01.865Z,14.02
2023-05-12T22:21:01.446Z,14.02
2023-05-12T22:28:02.169Z,14.02
2023-05-12T22:35:02.541Z,14.02
2023-05-12T22:42:02.216Z,14.14
2023-05-12T22:49:02.047Z,14.14
2023-05-12T22:56:01.672Z,14.14
2023-05-12T23:00:02.244Z,14.14
2023-05-12T23:07:01.664Z,14.4
2023-05-12T23:14:01.764Z,14.4
2023-05-12T23:21:02.311Z,14.45
2023-05-12T23:28:01.356Z,14.45
2023-05-12T23:35:02.161Z,14.17
2023-05-12T23:42:01.873Z,14.17
2023-05-12T23:49:01.491Z,13.96
2023-05-12T23:56:02.150Z,13.96
